Time;durP1;ratioP1;P1;durP2;ratioP2;P2;SDS_P1;SDS_P2;PMS_P1;PMS_P2;Temp;Humidity;BMP_temperature;BMP_pressure;BME280_temperature;BME280_humidity;BME280_pressure;Samples;Min_cycle;Max_cycle;Signal;HPM_P1;HPM_P2
2023/06/21 00:00:21;;;;;;;;;;;;;;;18.61;73.23;100464.43;102613;278;104488;-61
2023/06/21 00:03:13;;;;;;;;;;;;;;;18.66;73.00;100462.30;102640;278;113453;-57
2023/06/21 00:05:53;;;;;;;;;;;;;;;18.71;73.10;100463.45;102584;278;97001;-57
2023/06/21 00:08:32;;;;;;;;;;;;;;;18.73;72.97;100463.55;102629;278;98078;-55
2023/06/21 00:11:06;;;;;;;;;;;;;;;18.80;72.79;100461.52;102576;278;119081;-55
2023/06/21 00:13:36;;;;;;;;;;;;;;;18.88;72.66;100463.33;102567;278;105598;-58
2023/06/21 00:16:17;;;;;;;;;;;;;;;18.94;72.60;100460.38;102531;278;114593;-58
2023/06/21 00:18:54;;;;;;;;;;;;;;;19.03;72.50;100464.13;102549;278;96889;-54
2023/06/21 00:21:29;;;;;;;;;;;;;;;19.03;72.39;100463.02;102555;278;98362;-55
2023/06/21 00:24:05;;;;;;;;;;;;;;;19.03;72.29;100461.66;102567;278;120816;-56
2023/06/21 00:26:41;;;;;;;;;;;;;;;19.03;72.21;100457.29;102564;278;105424;-55
2023/06/21 00:29:19;;;;;;;;;;;;;;;19.04;72.17;100459.05;102520;278;114497;-55
2023/06/21 00:31:57;;;;;;;;;;;;;;;19.05;71.96;100453.33;102568;278;95047;-58
2023/06/21 00:34:31;;;;;;;;;;;;;;;19.04;71.92;100450.44;102590;278;97863;-58
2023/06/21 00:37:11;;;;;;;;;;;;;;;18.97;72.07;100448.77;102585;278;119617;-56
2023/06/21 00:39:53;;;;;;;;;;;;;;;18.89;72.09;100447.52;102566;267;105390;-56
2023/06/21 00:42:28;;;;;;;;;;;;;;;18.84;72.13;100443.91;102569;279;114625;-59
2023/06/21 00:45:06;;;;;;;;;;;;;;;18.81;72.10;100442.16;102628;279;92974;-61
2023/06/21 00:47:40;;;;;;;;;;;;;;;18.79;72.12;100442.16;102681;278;96651;-56
2023/06/21 00:50:18;;;;;;;;;;;;;;;18.79;72.18;100438.59;102650;278;118961;-56
2023/06/21 00:52:54;;;;;;;;;;;;;;;18.76;72.22;100436.95;102615;278;105657;-57
2023/06/21 00:55:29;;;;;;;;;;;;;;;18.77;72.29;100436.10;102448;280;114184;-58
2023/06/21 00:58:04;;;;;;;;;;;;;;;18.80;72.42;100436.38;102439;280;94442;-58
2023/06/21 01:00:43;;;;;;;;;;;;;;;18.80;72.27;100437.21;102599;278;97977;-57
2023/06/21 01:03:20;;;;;;;;;;;;;;;18.79;72.37;100431.59;102610;278;119376;-59
2023/06/21 01:05:59;;;;;;;;;;;;;;;18.78;72.45;100426.21;102571;278;104425;-60
2023/06/21 01:08:39;;;;;;;;;;;;;;;18.79;72.47;100432.42;102552;278;113304;-57
2023/06/21 01:11:21;;;;;;;;;;;;;;;18.79;72.47;100433.19;102544;278;94587;-59
2023/06/21 01:14:06;;;;;;;;;;;;;;;18.75;72.66;100442.24;102571;278;98334;-58
2023/06/21 01:16:39;;;;;;;;;;;;;;;18.67;72.74;100448.20;102580;278;120325;-58
2023/06/21 01:19:18;;;;;;;;;;;;;;;18.65;72.78;100451.12;102562;267;104749;-55
2023/06/21 01:21:57;;;;;;;;;;;;;;;18.65;72.76;100456.86;102573;278;114409;-57
2023/06/21 01:24:41;;;;;;;;;;;;;;;18.67;72.78;100458.88;102540;278;96700;-57
2023/06/21 01:27:30;;;;;;;;;;;;;;;18.69;72.76;100460.73;102603;279;97265;-57
2023/06/21 01:30:03;;;;;;;;;;;;;;;18.69;72.80;100466.54;102616;278;121052;-56
2023/06/21 01:32:41;;;;;;;;;;;;;;;18.68;72.85;100467.44;102625;278;106384;-56
2023/06/21 01:35:14;;;;;;;;;;;;;;;18.69;72.88;100473.70;102559;278;114232;-56
2023/06/21 01:37:48;;;;;;;;;;;;;;;18.73;72.77;100467.34;102634;278;95471;-56
2023/06/21 01:40:21;;;;;;;;;;;;;;;18.79;72.83;100459.63;102572;278;98064;-55
2023/06/21 01:42:58;;;;;;;;;;;;;;;18.86;72.71;100461.27;102617;279;120611;-59
2023/06/21 01:45:37;;;;;;;;;;;;;;;18.93;72.67;100459.73;102612;278;106049;-59
2023/06/21 01:48:08;;;;;;;;;;;;;;;18.97;72.55;100459.17;102592;278;115749;-59
2023/06/21 01:50:44;;;;;;;;;;;;;;;18.97;72.36;100461.97;102546;278;94319;-58
2023/06/21 01:53:22;;;;;;;;;;;;;;;18.95;72.36;100464.88;102534;279;97953;-58
2023/06/21 01:55:56;;;;;;;;;;;;;;;18.91;72.52;100463.83;102524;279;121204;-57
2023/06/21 01:58:29;;;;;;;;;;;;;;;18.90;72.57;100466.65;102547;278;103417;-59
2023/06/21 02:01:04;;;;;;;;;;;;;;;18.89;72.51;100468.04;102553;278;114808;-60
2023/06/21 02:03:41;;;;;;;;;;;;;;;18.85;72.58;100471.80;102574;278;94882;-57
2023/06/21 02:06:20;;;;;;;;;;;;;;;18.82;72.54;100477.17;102545;278;98641;-58
2023/06/21 02:08:52;;;;;;;;;;;;;;;18.82;72.65;100474.79;102576;278;121885;-58
2023/06/21 02:11:26;;;;;;;;;;;;;;;18.82;72.64;100472.21;102575;278;106045;-58
2023/06/21 02:13:59;;;;;;;;;;;;;;;18.83;72.52;100468.23;102610;278;113560;-61
2023/06/21 02:16:33;;;;;;;;;;;;;;;18.81;72.42;100473.15;102610;278;95358;-60
2023/06/21 02:19:07;;;;;;;;;;;;;;;18.81;72.57;100477.36;102629;278;96652;-60
2023/06/21 02:21:45;;;;;;;;;;;;;;;18.81;72.56;100478.34;102683;278;119624;-59
2023/06/21 02:24:21;;;;;;;;;;;;;;;18.81;72.61;100474.30;102615;278;105033;-60
2023/06/21 02:26:57;;;;;;;;;;;;;;;18.81;72.63;100471.77;102636;278;112366;-59
2023/06/21 02:29:34;;;;;;;;;;;;;;;18.80;72.64;100475.08;102592;278;94528;-60
2023/06/21 02:32:16;;;;;;;;;;;;;;;18.81;72.51;100472.70;102646;278;96159;-56
2023/06/21 02:34:53;;;;;;;;;;;;;;;18.81;72.54;100472.70;102555;278;120465;-55
2023/06/21 02:37:35;;;;;;;;;;;;;;;18.83;72.52;100473.49;102560;278;105658;-58
2023/06/21 02:40:10;;;;;;;;;;;;;;;18.86;72.48;100475.33;102522;278;114348;-58
2023/06/21 02:42:47;;;;;;;;;;;;;;;18.90;72.62;100479.17;102539;278;93068;-53
2023/06/21 02:45:24;;;;;;;;;;;;;;;18.94;72.64;100484.31;102551;279;98216;-55
2023/06/21 02:47:59;;;;;;;;;;;;;;;19.04;72.49;100479.30;102560;278;120604;-55
2023/06/21 02:50:33;;;;;;;;;;;;;;;19.13;72.42;100479.55;102397;280;105953;-55
2023/06/21 02:53:07;;;;;;;;;;;;;;;19.24;72.34;100473.59;102516;278;115132;-55
2023/06/21 02:55:44;;;;;;;;;;;;;;;19.38;72.13;100473.35;102573;278;97430;-55
2023/06/21 02:58:15;;;;;;;;;;;;;;;19.54;72.03;100472.45;102592;278;98282;-57
2023/06/21 03:00:46;;;;;;;;;;;;;;;19.69;71.75;100473.15;102652;278;119503;-56
2023/06/21 03:03:20;;;;;;;;;;;;;;;19.85;71.42;100471.85;102613;278;105446;-58
2023/06/21 03:05:55;;;;;;;;;;;;;;;20.02;71.16;100476.42;102576;278;114095;-58
2023/06/21 03:08:31;;;;;;;;;;;;;;;20.17;70.79;100479.00;102637;278;95277;-60
2023/06/21 03:11:11;;;;;;;;;;;;;;;20.32;70.45;100480.99;102625;278;97841;-60
2023/06/21 03:13:47;;;;;;;;;;;;;;;20.46;70.17;100484.21;102615;279;120778;-58
2023/06/21 03:16:21;;;;;;;;;;;;;;;20.60;69.89;100489.80;102527;278;103588;-58
2023/06/21 03:18:57;;;;;;;;;;;;;;;20.75;69.73;100492.75;102065;280;535846;-54
2023/06/21 03:21:33;;;;;;;;;;;;;;;20.87;69.48;100490.73;102534;278;94756;-56
2023/06/21 03:24:05;;;;;;;;;;;;;;;21.04;69.26;100486.67;102585;278;96955;-56
2023/06/21 03:26:35;;;;;;;;;;;;;;;21.27;68.84;100483.46;102549;278;121707;-57
2023/06/21 03:29:06;;;;;;;;;;;;;;;21.53;68.48;100482.98;102599;266;104153;-60
2023/06/21 03:31:50;;;;;;;;;;;;;;;22.06;67.71;100482.80;102523;279;114280;-60
2023/06/21 03:34:26;;;;;;;;;;;;;;;22.62;67.17;100482.33;102521;278;94414;-55
2023/06/21 03:37:03;;;;;;;;;;;;;;;23.42;66.17;100474.00;102579;278;97286;-56
2023/06/21 03:39:43;;;;;;;;;;;;;;;24.60;64.49;100470.21;102563;279;120537;-55
2023/06/21 03:42:21;;;;;;;;;;;;;;;25.75;62.73;100472.91;102609;278;105120;-56
2023/06/21 03:44:53;;;;;;;;;;;;;;;26.72;60.86;100473.23;102569;278;113597;-55
2023/06/21 03:47:25;;;;;;;;;;;;;;;27.47;59.08;100467.27;102618;278;93395;-58
2023/06/21 03:50:00;;;;;;;;;;;;;;;28.07;57.57;100466.61;102646;278;97728;-58
2023/06/21 03:52:33;;;;;;;;;;;;;;;28.54;55.91;100468.46;102690;278;118926;-55
2023/06/21 03:55:04;;;;;;;;;;;;;;;29.00;54.65;100464.46;102601;278;105191;-55
2023/06/21 03:57:38;;;;;;;;;;;;;;;29.34;53.56;100464.52;102624;279;114680;-61
2023/06/21 04:00:12;;;;;;;;;;;;;;;29.93;52.40;100461.61;102565;278;93740;-60
2023/06/21 04:02:48;;;;;;;;;;;;;;;30.10;51.28;100466.92;102495;279;96682;-56
2023/06/21 04:05:21;;;;;;;;;;;;;;;29.14;50.78;100469.80;102442;280;119551;-56
2023/06/21 04:07:59;;;;;;;;;;;;;;;28.98;50.54;100471.89;102317;281;104584;-57
2023/06/21 04:10:34;;;;;;;;;;;;;;;28.68;50.58;100473.87;102264;281;114558;-56
2023/06/21 04:13:04;;;;;;;;;;;;;;;29.69;50.00;100471.42;102428;280;94457;-59
2023/06/21 04:15:38;;;;;;;;;;;;;;;30.33;48.76;100471.09;102455;280;95582;-61
2023/06/21 04:18:14;;;;;;;;;;;;;;;29.61;48.36;100476.11;102444;280;119657;-56
2023/06/21 04:20:49;;;;;;;;;;;;;;;28.37;48.97;100479.92;102425;280;105082;-57
2023/06/21 04:23:26;;;;;;;;;;;;;;;27.42;49.88;100484.56;102421;280;114847;-55
2023/06/21 04:26:06;;;;;;;;;;;;;;;26.71;50.61;100485.58;102462;280;93737;-55
2023/06/21 04:28:40;;;;;;;;;;;;;;;26.14;51.04;100488.54;102439;279;98238;-55
2023/06/21 04:31:17;;;;;;;;;;;;;;;25.76;51.56;100484.61;102451;280;118549;-54
2023/06/21 04:33:53;;;;;;;;;;;;;;;25.40;52.36;100483.14;102522;280;104936;-56
2023/06/21 04:36:34;;;;;;;;;;;;;;;25.08;53.05;100485.02;102481;280;113596;-56
2023/06/21 04:39:11;;;;;;;;;;;;;;;24.88;53.66;100485.20;102473;280;95525;-57
2023/06/21 04:41:46;;;;;;;;;;;;;;;24.75;54.11;100489.19;102427;280;97737;-56
2023/06/21 04:44:27;;;;;;;;;;;;;;;24.68;54.40;100488.86;102447;280;121407;-56
2023/06/21 04:47:08;;;;;;;;;;;;;;;24.65;54.77;100481.96;102461;280;106077;-55
2023/06/21 04:49:45;;;;;;;;;;;;;;;24.68;54.73;100485.77;102415;279;114805;-55
2023/06/21 04:52:20;;;;;;;;;;;;;;;24.79;54.96;100481.77;102452;280;93816;-55
2023/06/21 04:54:51;;;;;;;;;;;;;;;24.98;55.21;100479.23;102448;280;98162;-54
2023/06/21 04:57:26;;;;;;;;;;;;;;;25.41;55.35;100476.34;102335;280;121616;-56
2023/06/21 05:00:00;;;;;;;;;;;;;;;25.97;54.89;100474.42;102406;317;104700;-55
2023/06/21 05:02:37;;;;;;;;;;;;;;;27.41;53.67;100470.90;102449;280;114460;-57
2023/06/21 05:05:09;;;;;;;;;;;;;;;28.88;52.18;100471.27;102427;280;94206;-58
2023/06/21 05:07:44;;;;;;;;;;;;;;;30.80;50.17;100473.48;102462;280;95641;-58
2023/06/21 05:10:17;;;;;;;;;;;;;;;31.83;47.81;100467.42;102438;280;121250;-59
2023/06/21 05:12:48;;;;;;;;;;;;;;;31.64;47.16;100474.11;102482;280;106115;-58
2023/06/21 05:15:21;;;;;;;;;;;;;;;32.70;45.96;100468.23;102456;280;113775;-58
2023/06/21 05:17:59;;;;;;;;;;;;;;;33.93;44.31;100466.96;102492;280;93990;-55
2023/06/21 05:20:33;;;;;;;;;;;;;;;34.98;42.51;100467.47;102524;280;96804;-55
2023/06/21 05:23:09;;;;;;;;;;;;;;;35.75;40.88;100467.14;102507;280;120085;-60
2023/06/21 05:25:46;;;;;;;;;;;;;;;36.32;39.65;100464.98;102242;280;105693;-60
2023/06/21 05:28:23;;;;;;;;;;;;;;;36.34;38.23;100469.63;102294;282;117464;-60
2023/06/21 05:30:54;;;;;;;;;;;;;;;36.67;37.60;100468.45;102284;280;94477;-60
2023/06/21 05:33:31;;;;;;;;;;;;;;;37.30;36.86;100468.30;102400;280;97272;-57
2023/06/21 05:36:06;;;;;;;;;;;;;;;37.90;35.73;100476.92;102452;280;121167;-56
2023/06/21 05:38:42;;;;;;;;;;;;;;;38.48;35.00;100472.33;102426;280;105786;-60
2023/06/21 05:41:18;;;;;;;;;;;;;;;39.06;34.07;100474.11;102418;280;115043;-60
2023/06/21 05:43:54;;;;;;;;;;;;;;;37.96;33.44;100476.08;102427;280;94655;-59
2023/06/21 05:46:27;;;;;;;;;;;;;;;37.08;34.25;100476.44;102391;280;97572;-59
2023/06/21 05:49:02;;;;;;;;;;;;;;;36.96;33.97;100480.95;102451;279;120734;-57
2023/06/21 05:51:43;;;;;;;;;;;;;;;37.34;34.04;100483.69;102418;280;106082;-59
2023/06/21 05:54:21;;;;;;;;;;;;;;;38.06;33.11;100483.23;102420;280;114423;-58
2023/06/21 05:56:52;;;;;;;;;;;;;;;38.52;32.48;100485.06;102432;280;95014;-65
2023/06/21 05:59:32;;;;;;;;;;;;;;;38.95;32.03;100482.98;102435;280;96081;-60
2023/06/21 06:02:07;;;;;;;;;;;;;;;39.27;31.62;100474.94;102472;280;121144;-60
2023/06/21 06:04:38;;;;;;;;;;;;;;;39.50;31.06;100478.05;102511;280;105715;-59
2023/06/21 06:07:13;;;;;;;;;;;;;;;39.56;30.68;100475.23;102421;268;115220;-59
2023/06/21 06:09:51;;;;;;;;;;;;;;;39.41;30.67;100478.14;102362;280;96067;-60
2023/06/21 06:12:29;;;;;;;;;;;;;;;39.84;30.23;100479.84;102520;280;97078;-55
2023/06/21 06:15:01;;;;;;;;;;;;;;;40.03;29.69;100481.31;102432;280;120908;-54
2023/06/21 06:17:37;;;;;;;;;;;;;;;40.48;29.28;100475.21;102498;280;105375;-60
2023/06/21 06:20:12;;;;;;;;;;;;;;;40.77;28.90;100477.05;102429;280;114244;-59
2023/06/21 06:22:46;;;;;;;;;;;;;;;40.82;28.23;100473.70;102473;280;94848;-55
2023/06/21 06:25:17;;;;;;;;;;;;;;;41.04;28.13;100469.63;102424;280;97645;-54
2023/06/21 06:27:49;;;;;;;;;;;;;;;41.26;27.84;100472.87;102430;280;120456;-55
2023/06/21 06:30:24;;;;;;;;;;;;;;;41.55;27.42;100470.08;102410;280;105289;-55
2023/06/21 06:32:59;;;;;;;;;;;;;;;41.84;26.98;100466.92;102405;280;115055;-57
2023/06/21 06:35:30;;;;;;;;;;;;;;;42.05;26.72;100466.38;102200;280;95924;-57
2023/06/21 06:38:03;;;;;;;;;;;;;;;42.16;26.44;100459.79;102413;280;97597;-57
2023/06/21 06:40:36;;;;;;;;;;;;;;;42.45;26.25;100459.45;102433;280;120209;-57
2023/06/21 06:43:12;;;;;;;;;;;;;;;42.46;25.59;100462.20;102452;280;105728;-56
2023/06/21 06:45:45;;;;;;;;;;;;;;;42.45;25.57;100464.73;102386;280;113855;-57
2023/06/21 06:48:22;;;;;;;;;;;;;;;42.53;25.71;100461.48;102465;268;94173;-58
2023/06/21 06:51:01;;;;;;;;;;;;;;;43.09;25.30;100462.38;102459;280;97998;-56
2023/06/21 06:53:34;;;;;;;;;;;;;;;43.22;24.89;100459.67;102520;280;120519;-56
2023/06/21 06:56:05;;;;;;;;;;;;;;;43.18;24.64;100451.31;102468;280;105705;-55
2023/06/21 06:58:43;;;;;;;;;;;;;;;43.40;24.45;100449.60;102473;280;114168;-57
2023/06/21 07:01:21;;;;;;;;;;;;;;;43.57;24.12;100452.88;102422;280;94705;-57
2023/06/21 07:03:56;;;;;;;;;;;;;;;43.60;24.21;100450.75;102304;280;97305;-57
2023/06/21 07:06:26;;;;;;;;;;;;;;;43.62;24.18;100452.77;102408;280;120644;-57
2023/06/21 07:09:09;;;;;;;;;;;;;;;43.44;24.13;100452.27;102437;280;104749;-58
2023/06/21 07:11:43;;;;;;;;;;;;;;;43.68;23.78;100450.48;102420;280;113929;-56
2023/06/21 07:14:21;;;;;;;;;;;;;;;43.95;23.82;100453.33;102220;280;95275;-58
2023/06/21 07:16:58;;;;;;;;;;;;;;;44.07;23.65;100457.83;102430;280;96360;-55
2023/06/21 07:19:33;;;;;;;;;;;;;;;43.93;23.42;100457.56;102397;280;120197;-54
2023/06/21 07:22:05;;;;;;;;;;;;;;;44.15;23.17;100458.52;102249;281;105607;-58
2023/06/21 07:24:39;;;;;;;;;;;;;;;43.95;23.06;100465.05;102404;280;113513;-58
2023/06/21 07:27:15;;;;;;;;;;;;;;;43.60;23.08;100461.81;102294;280;94124;-56
2023/06/21 07:29:52;;;;;;;;;;;;;;;43.76;23.22;100462.18;102365;280;97595;-55
2023/06/21 07:32:23;;;;;;;;;;;;;;;44.02;23.18;100458.50;102435;280;118943;-54
2023/06/21 07:34:57;;;;;;;;;;;;;;;44.02;23.05;100455.41;102237;280;107446;-54
2023/06/21 07:37:28;;;;;;;;;;;;;;;43.75;22.64;100450.39;102405;280;114291;-56
2023/06/21 07:40:00;;;;;;;;;;;;;;;43.38;22.71;100444.47;102396;280;92279;-57
2023/06/21 07:42:37;;;;;;;;;;;;;;;43.59;22.94;100447.17;102451;280;96550;-53
2023/06/21 07:45:09;;;;;;;;;;;;;;;43.78;22.75;100449.65;102447;280;120163;-54
2023/06/21 07:47:46;;;;;;;;;;;;;;;43.89;22.63;100448.16;102550;280;103123;-58
2023/06/21 07:50:23;;;;;;;;;;;;;;;43.23;22.74;100446.09;102452;279;114679;-58
2023/06/21 07:53:00;;;;;;;;;;;;;;;41.83;23.14;100448.86;102493;280;94578;-54
2023/06/21 07:55:34;;;;;;;;;;;;;;;40.65;24.15;100449.98;102450;280;97860;-55
2023/06/21 07:58:10;;;;;;;;;;;;;;;40.00;24.59;100450.86;102436;280;120625;-55
2023/06/21 08:00:51;;;;;;;;;;;;;;;39.20;25.00;100449.08;102409;280;106062;-55
2023/06/21 08:03:30;;;;;;;;;;;;;;;38.37;25.91;100452.41;102420;276;114347;-56
2023/06/21 08:06:05;;;;;;;;;;;;;;;37.67;26.68;100452.95;102418;280;94497;-55
2023/06/21 08:08:38;;;;;;;;;;;;;;;37.12;26.85;100449.08;102459;280;96321;-54
2023/06/21 08:11:18;;;;;;;;;;;;;;;36.34;27.34;100446.78;102391;280;121590;-56
2023/06/21 08:13:52;;;;;;;;;;;;;;;35.93;28.29;100454.36;102437;280;105340;-56
2023/06/21 08:16:25;;;;;;;;;;;;;;;35.89;28.88;100451.27;102405;279;113611;-55
2023/06/21 08:18:55;;;;;;;;;;;;;;;36.24;29.10;100445.29;102430;280;93678;-54
2023/06/21 08:21:29;;;;;;;;;;;;;;;36.63;29.48;100443.39;102411;280;96684;-55
2023/06/21 08:24:06;;;;;;;;;;;;;;;37.06;28.98;100444.04;102434;280;121106;-58
2023/06/21 08:26:46;;;;;;;;;;;;;;;37.69;28.87;100444.23;102456;280;104755;-59
2023/06/21 08:29:19;;;;;;;;;;;;;;;38.18;28.62;100443.52;102450;280;113977;-56
2023/06/21 08:31:57;;;;;;;;;;;;;;;38.59;27.92;100446.89;102405;279;93619;-56
2023/06/21 08:34:35;;;;;;;;;;;;;;;38.47;27.47;100448.98;102499;280;97225;-56
2023/06/21 08:37:10;;;;;;;;;;;;;;;38.01;27.40;100454.19;102543;280;119913;-55
2023/06/21 08:39:44;;;;;;;;;;;;;;;37.56;27.68;100455.86;102442;280;104127;-55
2023/06/21 08:42:15;;;;;;;;;;;;;;;37.29;27.88;100450.14;102439;279;115028;-59
2023/06/21 08:44:53;;;;;;;;;;;;;;;37.36;28.78;100450.47;102449;280;94056;-59
2023/06/21 08:47:28;;;;;;;;;;;;;;;37.79;28.46;100446.78;102335;280;96936;-55
2023/06/21 08:50:03;;;;;;;;;;;;;;;37.61;27.68;100450.91;102414;280;120579;-55
2023/06/21 08:52:40;;;;;;;;;;;;;;;37.31;27.64;100449.14;102439;280;105688;-59
2023/06/21 08:55:12;;;;;;;;;;;;;;;36.94;28.08;100452.56;102431;280;114115;-60
2023/06/21 08:57:48;;;;;;;;;;;;;;;36.57;28.47;100452.10;102445;279;95452;-57
2023/06/21 09:00:30;;;;;;;;;;;;;;;36.15;29.08;100454.44;102354;280;96949;-56
2023/06/21 09:03:08;;;;;;;;;;;;;;;35.82;29.42;100453.14;102252;281;120968;-58
2023/06/21 09:05:45;;;;;;;;;;;;;;;35.51;29.86;100449.39;102415;280;104249;-58
2023/06/21 09:08:19;;;;;;;;;;;;;;;35.25;30.04;100454.43;102423;280;114446;-60
2023/06/21 09:10:58;;;;;;;;;;;;;;;34.97;31.11;100457.31;102206;281;94597;-59
2023/06/21 09:13:34;;;;;;;;;;;;;;;34.89;31.07;100454.10;102484;280;97974;-56
2023/06/21 09:16:08;;;;;;;;;;;;;;;35.03;31.01;100446.95;102473;280;120864;-57
2023/06/21 09:18:39;;;;;;;;;;;;;;;35.23;31.26;100455.96;102459;280;105317;-56
2023/06/21 09:21:14;;;;;;;;;;;;;;;35.17;31.10;100455.06;102299;280;111935;-55
2023/06/21 09:23:51;;;;;;;;;;;;;;;35.02;30.59;100448.36;102428;280;94425;-55
2023/06/21 09:26:26;;;;;;;;;;;;;;;35.12;30.36;100447.73;102468;280;97343;-56
2023/06/21 09:29:08;;;;;;;;;;;;;;;35.05;29.30;100451.73;102427;280;120231;-58
2023/06/21 09:31:45;;;;;;;;;;;;;;;35.03;29.31;100442.86;102421;280;105252;-58
2023/06/21 09:34:19;;;;;;;;;;;;;;;35.11;29.44;100441.37;102438;280;112435;-56
2023/06/21 09:36:57;;;;;;;;;;;;;;;35.12;29.23;100447.33;102421;280;95281;-58
2023/06/21 09:39:32;;;;;;;;;;;;;;;35.19;29.70;100449.31;102396;280;98157;-55
2023/06/21 09:42:05;;;;;;;;;;;;;;;35.22;29.90;100451.98;102360;280;120115;-59
2023/06/21 09:44:41;;;;;;;;;;;;;;;35.27;29.61;100446.71;102434;280;104461;-59
2023/06/21 09:47:24;;;;;;;;;;;;;;;35.36;29.45;100443.60;102472;280;114121;-57
2023/06/21 09:50:05;;;;;;;;;;;;;;;35.21;29.72;100445.64;102411;280;93856;-58
2023/06/21 09:52:43;;;;;;;;;;;;;;;35.01;29.81;100444.88;102446;280;96783;-55
2023/06/21 09:55:15;;;;;;;;;;;;;;;34.68;30.01;100444.21;102460;280;120361;-56
2023/06/21 09:57:45;;;;;;;;;;;;;;;34.42;30.42;100443.77;102473;280;105465;-57
2023/06/21 10:00:17;;;;;;;;;;;;;;;34.19;30.69;100447.36;102285;280;113911;-57
2023/06/21 10:02:53;;;;;;;;;;;;;;;33.90;31.42;100454.36;102465;280;94941;-58
2023/06/21 10:05:30;;;;;;;;;;;;;;;33.60;31.73;100453.92;102484;280;96912;-58
2023/06/21 10:08:05;;;;;;;;;;;;;;;33.26;32.15;100453.02;102487;280;120300;-57
2023/06/21 10:10:38;;;;;;;;;;;;;;;32.90;32.56;100456.73;102204;281;102549;-57
2023/06/21 10:13:16;;;;;;;;;;;;;;;32.43;32.99;100456.21;102487;280;114689;-59
2023/06/21 10:15:56;;;;;;;;;;;;;;;32.10;33.32;100454.17;102397;280;94118;-59
2023/06/21 10:18:28;;;;;;;;;;;;;;;31.78;34.18;100452.86;102486;280;98233;-58
2023/06/21 10:21:04;;;;;;;;;;;;;;;31.57;34.32;100457.27;102452;280;120990;-58
2023/06/21 10:23:37;;;;;;;;;;;;;;;31.33;34.60;100459.79;102441;280;105305;-56
2023/06/21 10:26:17;;;;;;;;;;;;;;;31.06;35.00;100461.56;102363;280;114762;-56
2023/06/21 10:28:51;;;;;;;;;;;;;;;30.77;35.32;100462.97;102425;280;94839;-56
2023/06/21 10:31:24;;;;;;;;;;;;;;;30.58;35.89;100463.67;102403;280;96892;-55
2023/06/21 10:33:56;;;;;;;;;;;;;;;30.40;36.47;100465.17;102451;280;120699;-56
2023/06/21 10:36:36;;;;;;;;;;;;;;;30.22;36.55;100466.62;102405;279;104356;-56
2023/06/21 10:39:16;;;;;;;;;;;;;;;30.02;37.11;100459.05;102399;280;115657;-57
2023/06/21 10:41:48;;;;;;;;;;;;;;;29.89;37.68;100465.01;102412;280;93578;-58
2023/06/21 10:44:26;;;;;;;;;;;;;;;29.85;38.14;100467.39;102455;280;97648;-58
2023/06/21 10:47:00;;;;;;;;;;;;;;;29.72;38.62;100471.73;102440;280;119088;-59
2023/06/21 10:49:34;;;;;;;;;;;;;;;29.69;39.21;100473.48;102461;280;104450;-65
2023/06/21 10:52:07;;;;;;;;;;;;;;;29.57;39.86;100479.54;102479;280;114742;-61
2023/06/21 10:54:43;;;;;;;;;;;;;;;29.44;40.47;100484.80;102442;280;94948;-62
2023/06/21 10:57:17;;;;;;;;;;;;;;;29.22;41.13;100489.38;102497;280;98170;-62
2023/06/21 10:59:53;;;;;;;;;;;;;;;28.98;41.36;100494.23;102457;279;121533;-62
2023/06/21 11:02:36;;;;;;;;;;;;;;;28.73;41.49;100504.14;102480;280;105729;-62
2023/06/21 11:05:17;;;;;;;;;;;;;;;28.52;42.45;100502.45;102415;279;113209;-62
2023/06/21 11:08:00;;;;;;;;;;;;;;;28.29;43.79;100499.98;102478;280;93003;-62
2023/06/21 11:10:39;;;;;;;;;;;;;;;28.06;45.09;100510.02;102394;280;97704;-60
2023/06/21 11:13:13;;;;;;;;;;;;;;;27.91;45.92;100507.25;102426;279;120299;-61
2023/06/21 11:15:53;;;;;;;;;;;;;;;27.78;46.85;100512.20;102445;280;105919;-60
2023/06/21 11:18:27;;;;;;;;;;;;;;;27.60;47.85;100518.30;101998;281;505110;-59
2023/06/21 11:21:08;;;;;;;;;;;;;;;27.40;48.85;100533.42;102345;280;94376;-57
2023/06/21 11:23:50;;;;;;;;;;;;;;;27.18;49.26;100538.98;102461;280;97720;-58
2023/06/21 11:26:22;;;;;;;;;;;;;;;26.90;49.79;100543.71;102421;280;121795;-58
2023/06/21 11:28:57;;;;;;;;;;;;;;;26.71;50.69;100546.23;102435;280;103533;-58
2023/06/21 11:31:39;;;;;;;;;;;;;;;26.37;51.70;100551.34;102388;280;113285;-59
2023/06/21 11:34:23;;;;;;;;;;;;;;;26.17;52.54;100551.84;102463;280;94449;-54
2023/06/21 11:37:22;;;;;;;;;;;;;;;26.02;53.52;100547.27;102461;280;98058;-57
2023/06/21 11:40:02;;;;;;;;;;;;;;;25.80;54.40;100549.95;102468;280;120752;-59
2023/06/21 11:42:35;;;;;;;;;;;;;;;25.58;54.75;100547.09;102479;280;106344;-58
2023/06/21 11:45:24;;;;;;;;;;;;;;;25.35;55.37;100540.91;102449;280;113431;-58
2023/06/21 11:48:08;;;;;;;;;;;;;;;25.18;55.97;100530.20;102466;280;94216;-57
2023/06/21 11:50:48;;;;;;;;;;;;;;;25.09;56.28;100520.34;102425;280;97020;-56
2023/06/21 11:53:23;;;;;;;;;;;;;;;25.00;56.48;100512.95;102406;280;120148;-56
2023/06/21 11:55:59;;;;;;;;;;;;;;;24.97;56.65;100508.64;102459;280;105430;-57
2023/06/21 11:58:35;;;;;;;;;;;;;;;24.96;56.62;100501.64;102433;280;113476;-55
2023/06/21 12:01:13;;;;;;;;;;;;;;;24.95;56.47;100498.71;102394;280;95013;-56
2023/06/21 12:03:50;;;;;;;;;;;;;;;24.87;56.51;100497.46;102452;280;97939;-59
2023/06/21 12:06:22;;;;;;;;;;;;;;;24.92;56.96;100494.25;102407;280;121323;-59
2023/06/21 12:08:58;;;;;;;;;;;;;;;24.98;56.96;100497.26;102404;280;105594;-59
2023/06/21 12:11:31;;;;;;;;;;;;;;;25.02;57.32;100493.16;102432;280;114430;-59
2023/06/21 12:14:08;;;;;;;;;;;;;;;25.12;57.48;100489.91;102467;280;93627;-58
2023/06/21 12:16:41;;;;;;;;;;;;;;;25.28;57.40;100485.19;102430;280;97008;-58
2023/06/21 12:19:21;;;;;;;;;;;;;;;25.50;56.85;100479.79;102462;280;119736;-54
2023/06/21 12:22:02;;;;;;;;;;;;;;;25.72;56.60;100477.72;102489;280;106166;-55
2023/06/21 12:24:42;;;;;;;;;;;;;;;25.87;55.81;100474.50;102439;280;114019;-56
2023/06/21 12:27:16;;;;;;;;;;;;;;;25.91;55.53;100470.92;102480;280;94538;-55
2023/06/21 12:29:52;;;;;;;;;;;;;;;26.05;54.94;100469.77;102449;280;95403;-55
2023/06/21 12:32:25;;;;;;;;;;;;;;;26.17;54.74;100467.70;102472;280;120278;-58
2023/06/21 12:35:06;;;;;;;;;;;;;;;26.26;54.17;100463.36;102426;280;105267;-57
2023/06/21 12:37:44;;;;;;;;;;;;;;;26.42;53.41;100458.21;102476;280;114426;-56
2023/06/21 12:40:18;;;;;;;;;;;;;;;26.60;52.57;100459.48;102419;280;93946;-57
2023/06/21 12:42:51;;;;;;;;;;;;;;;26.79;51.89;100452.27;102452;280;96436;-58
2023/06/21 12:45:25;;;;;;;;;;;;;;;27.01;51.47;100448.64;102402;279;120404;-58
2023/06/21 12:48:00;;;;;;;;;;;;;;;27.20;51.37;100443.40;102434;280;105503;-58
2023/06/21 12:50:42;;;;;;;;;;;;;;;27.39;50.92;100438.98;102438;280;114333;-57
2023/06/21 12:53:16;;;;;;;;;;;;;;;27.57;50.48;100441.08;102352;281;95494;-55
2023/06/21 12:55:51;;;;;;;;;;;;;;;27.67;50.15;100439.80;102437;280;97207;-55
2023/06/21 12:58:24;;;;;;;;;;;;;;;27.77;49.84;100441.02;102397;280;119638;-59
2023/06/21 13:00:59;;;;;;;;;;;;;;;27.73;49.46;100439.10;102395;280;106075;-55
2023/06/21 13:03:36;;;;;;;;;;;;;;;27.65;49.24;100443.89;102266;282;114879;-57
2023/06/21 13:06:18;;;;;;;;;;;;;;;27.46;48.75;100440.05;102410;280;93415;-55
2023/06/21 13:08:55;;;;;;;;;;;;;;;27.28;48.39;100439.96;102499;280;97069;-55
2023/06/21 13:11:31;;;;;;;;;;;;;;;27.19;48.43;100445.02;102505;280;119647;-56
2023/06/21 13:14:08;;;;;;;;;;;;;;;27.08;48.48;100447.29;102315;280;104958;-55